Time;durP1;ratioP1;P1;durP2;ratioP2;P2;SDS_P1;SDS_P2;PMS_P1;PMS_P2;Temp;Humidity;BMP_temperature;BMP_pressure;BME280_temperature;BME280_humidity;BME280_pressure;Samples;Min_cycle;Max_cycle;Signal;HPM_P1;HPM_P2
2023/01/21 00:01:07;;;;;;;7.03;2.00;;;;;;;10.45;100.00;101446.03;2095013;28;20459;-72
2023/01/21 00:02:30;;;;;;;13.07;4.28;;;;;;;10.46;100.00;101440.81;2105516;28;20077;-71
2023/01/21 00:03:52;;;;;;;12.18;3.70;;;;;;;10.44;100.00;101444.22;2094612;28;20049;-72
2023/01/21 00:05:13;;;;;;;10.63;3.25;;;;;;;10.43;100.00;101442.47;2098697;28;20043;-71
2023/01/21 00:06:36;;;;;;;16.08;5.25;;;;;;;10.41;100.00;101445.06;2102943;28;20052;-71
2023/01/21 00:07:59;;;;;;;17.73;5.05;;;;;;;10.38;100.00;101440.59;2105254;28;20147;-72
2023/01/21 00:09:20;;;;;;;13.18;3.50;;;;;;;10.35;100.00;101448.44;2094574;28;20115;-72
2023/01/21 00:10:42;;;;;;;12.73;2.83;;;;;;;10.32;100.00;101450.97;2104175;28;20175;-71
2023/01/21 00:12:05;;;;;;;10.00;2.15;;;;;;;10.33;100.00;101446.59;2099780;28;20043;-72
2023/01/21 00:13:28;;;;;;;10.35;1.80;;;;;;;10.33;100.00;101449.22;2114706;27;20422;-71
2023/01/21 00:14:51;;;;;;;8.40;2.00;;;;;;;10.33;100.00;101455.41;2114026;28;20055;-71
2023/01/21 00:16:13;;;;;;;12.63;1.90;;;;;;;10.34;100.00;101454.56;2112344;28;20059;-71
2023/01/21 00:17:36;;;;;;;7.85;1.83;;;;;;;10.33;100.00;101455.41;2108488;28;20113;-71
2023/01/21 00:18:57;;;;;;;7.28;2.13;;;;;;;10.34;100.00;101453.66;2086423;28;20080;-71
2023/01/21 00:20:20;;;;;;;8.75;2.15;;;;;;;10.35;100.00;101455.47;2092217;28;20500;-71
2023/01/21 00:21:42;;;;;;;8.23;2.45;;;;;;;10.34;100.00;101451.91;2103781;28;20802;-71
2023/01/21 00:23:05;;;;;;;8.50;2.15;;;;;;;10.36;100.00;101451.97;2102725;28;20044;-71
2023/01/21 00:24:27;;;;;;;13.52;1.95;;;;;;;10.36;100.00;101452.88;2102369;28;20055;-71
2023/01/21 00:25:48;;;;;;;9.75;2.33;;;;;;;10.37;100.00;101453.78;2109193;28;20108;-71
2023/01/21 00:27:11;;;;;;;11.07;1.70;;;;;;;10.36;100.00;101451.97;2104297;28;20052;-71
2023/01/21 00:28:36;;;;;;;6.93;1.85;;;;;;;10.37;100.00;101449.34;2111479;28;20046;-71
2023/01/21 00:29:58;;;;;;;10.10;1.83;;;;;;;10.38;100.00;101456.41;2103445;28;20055;-71
2023/01/21 00:31:21;;;;;;;10.27;2.00;;;;;;;10.39;100.00;101452.94;2108408;28;20044;-71
2023/01/21 00:32:44;;;;;;;11.25;1.80;;;;;;;10.40;100.00;101464.38;2106746;28;20052;-71
2023/01/21 00:34:05;;;;;;;9.38;1.90;;;;;;;10.42;100.00;101467.06;2102703;28;20534;-71
2023/01/21 00:35:27;;;;;;;12.98;3.88;;;;;;;10.43;100.00;101469.78;2101908;28;20052;-71
2023/01/21 00:36:50;;;;;;;22.33;7.28;;;;;;;10.45;100.00;101473.31;2102714;28;20155;-71
2023/01/21 00:38:11;;;;;;;8.88;2.40;;;;;;;10.46;100.00;101476.84;2102820;28;20056;-71
2023/01/21 00:39:33;;;;;;;9.70;2.38;;;;;;;10.47;100.00;101476.00;2102296;28;20738;-72
2023/01/21 00:41:00;;;;;;;12.00;3.95;;;;;;;10.49;100.00;101482.22;2110919;28;20043;-71
2023/01/21 00:42:21;;;;;;;13.02;3.05;;;;;;;10.47;100.00;101470.72;2095264;28;20432;-71
2023/01/21 00:43:44;;;;;;;13.73;3.90;;;;;;;10.46;100.00;101466.31;2104191;28;20052;-71
2023/01/21 00:45:10;;;;;;;14.05;3.20;;;;;;;10.45;100.00;101468.03;2102733;28;20713;-71
2023/01/21 00:46:32;;;;;;;11.02;2.78;;;;;;;10.41;100.00;101470.56;2109503;28;20051;-71
2023/01/21 00:47:55;;;;;;;7.88;1.90;;;;;;;10.39;100.00;101468.78;2109373;28;20047;-71
2023/01/21 00:49:17;;;;;;;10.50;2.25;;;;;;;10.37;100.00;101465.19;2103132;28;20060;-71
2023/01/21 00:50:38;;;;;;;9.25;2.25;;;;;;;10.38;100.00;101469.63;2101430;28;20040;-71
2023/01/21 00:52:01;;;;;;;9.50;1.88;;;;;;;10.38;100.00;101461.69;2093587;28;20055;-71
2023/01/21 00:53:22;;;;;;;7.65;1.75;;;;;;;10.37;100.00;101465.19;2112201;27;20055;-71
2023/01/21 00:54:45;;;;;;;9.30;1.70;;;;;;;10.35;100.00;101466.91;2107419;28;20546;-71
2023/01/21 00:56:08;;;;;;;11.05;1.70;;;;;;;10.35;100.00;101464.28;2094152;28;20055;-71
2023/01/21 00:57:31;;;;;;;8.32;2.78;;;;;;;10.34;100.00;101461.59;2111156;28;20527;-71
2023/01/21 00:58:53;;;;;;;8.15;1.80;;;;;;;10.33;100.00;101462.44;2110109;28;20050;-72
2023/01/21 01:00:17;;;;;;;13.52;3.80;;;;;;;10.34;100.00;101459.84;2100812;28;20040;-71
2023/01/21 01:01:39;;;;;;;11.05;1.58;;;;;;;10.36;100.00;101466.06;2105531;28;20051;-71
2023/01/21 01:03:00;;;;;;;7.38;2.03;;;;;;;10.37;100.00;101464.31;2093832;28;20048;-71
2023/01/21 01:04:23;;;;;;;12.75;2.50;;;;;;;10.36;100.00;101462.53;2099373;28;20047;-71
2023/01/21 01:05:44;;;;;;;9.30;2.72;;;;;;;10.35;100.00;101463.38;2102009;28;20052;-72
2023/01/21 01:07:07;;;;;;;7.88;2.83;;;;;;;10.33;100.00;101455.41;2102544;28;20044;-72
2023/01/21 01:08:28;;;;;;;10.95;2.85;;;;;;;10.31;100.00;101454.47;2101308;28;20572;-71
2023/01/21 01:09:50;;;;;;;14.43;2.00;;;;;;;10.29;100.00;101461.47;2107192;28;20097;-71
2023/01/21 01:11:14;;;;;;;6.38;1.33;;;;;;;10.30;100.00;101459.72;2085755;28;20099;-71
2023/01/21 01:12:36;;;;;;;8.20;1.40;;;;;;;10.29;100.00;101458.81;2106611;28;20046;-72
2023/01/21 01:13:59;;;;;;;8.07;1.20;;;;;;;10.30;100.00;101450.06;2102410;28;20059;-72
2023/01/21 01:15:22;;;;;;;4.35;1.30;;;;;;;10.31;100.00;101448.28;2104634;28;20070;-71
2023/01/21 01:16:44;;;;;;;9.40;1.48;;;;;;;10.29;100.00;101450.00;2102594;28;20048;-71
2023/01/21 01:18:05;;;;;;;6.32;1.10;;;;;;;10.28;100.00;101451.75;2094162;28;20455;-71
2023/01/21 01:19:28;;;;;;;8.68;1.55;;;;;;;10.27;100.00;101452.59;2099667;28;20043;-71
2023/01/21 01:20:49;;;;;;;8.93;1.42;;;;;;;10.26;100.00;101449.91;2104689;28;20051;-71
2023/01/21 01:22:11;;;;;;;9.35;1.30;;;;;;;10.23;100.00;101444.56;2104069;28;20600;-72
2023/01/21 01:23:33;;;;;;;8.40;1.20;;;;;;;10.21;100.00;101451.53;2097024;28;20408;-71
2023/01/21 01:24:55;;;;;;;9.20;1.80;;;;;;;10.20;100.00;101447.09;2099688;28;20052;-72
2023/01/21 01:26:19;;;;;;;7.97;1.10;;;;;;;10.18;100.00;101449.69;2099966;28;20056;-71
2023/01/21 01:27:42;;;;;;;6.32;1.20;;;;;;;10.16;100.00;101443.47;2114550;27;20490;-71
2023/01/21 01:29:05;;;;;;;8.35;1.10;;;;;;;10.15;100.00;101446.97;2108782;28;20063;-71
2023/01/21 01:30:28;;;;;;;9.30;1.40;;;;;;;10.16;100.00;101445.22;2110975;28;20052;-71
2023/01/21 01:31:50;;;;;;;11.93;2.67;;;;;;;10.13;100.00;101435.47;2110593;28;20145;-72
2023/01/21 01:33:11;;;;;;;10.43;1.50;;;;;;;10.11;100.00;101439.78;2109735;28;20051;-72
2023/01/21 01:34:34;;;;;;;7.80;1.63;;;;;;;10.10;100.00;101434.50;2110200;28;20433;-71
2023/01/21 01:36:00;;;;;;;6.75;1.13;;;;;;;10.10;100.00;101431.84;2086493;28;20101;-71
2023/01/21 01:37:22;;;;;;;11.90;2.65;;;;;;;10.10;100.00;101435.38;2109871;28;20514;-71
2023/01/21 01:38:46;;;;;;;10.27;1.40;;;;;;;10.09;100.00;101432.69;2110696;28;20051;-71
2023/01/21 01:40:09;;;;;;;8.98;1.58;;;;;;;10.08;100.00;101434.44;2108599;28;20134;-71
2023/01/21 01:41:34;;;;;;;6.55;0.95;;;;;;;10.09;100.00;101435.34;2105255;28;20039;-71
2023/01/21 01:42:55;;;;;;;7.32;0.98;;;;;;;10.08;100.00;101436.19;2109544;28;20061;-71
2023/01/21 01:44:55;;;;;;;11.38;1.50;;;;;;;10.07;100.00;101432.66;2108740;28;20562;-71
2023/01/21 01:46:19;;;;;;;7.82;1.73;;;;;;;10.06;100.00;101441.41;2090642;28;20101;-71
2023/01/21 01:47:46;;;;;;;9.23;1.55;;;;;;;10.07;100.00;101437.91;2091737;28;20064;-71
2023/01/21 01:49:13;;;;;;;7.60;1.33;;;;;;;10.05;100.00;101436.97;2108690;28;20510;-71
2023/01/21 01:50:37;;;;;;;8.40;1.48;;;;;;;10.05;100.00;101436.09;2096415;28;20745;-71
2023/01/21 01:52:03;;;;;;;5.85;0.80;;;;;;;10.03;100.00;101428.16;2100098;28;20040;-71
2023/01/21 01:53:27;;;;;;;11.18;1.40;;;;;;;10.03;100.00;101425.50;2102775;28;20052;-72
2023/01/21 01:54:55;;;;;;;7.80;1.15;;;;;;;10.04;100.00;101421.13;2096354;28;20059;-71
2023/01/21 01:56:22;;;;;;;9.10;1.55;;;;;;;10.03;100.00;101416.69;2108384;28;20044;-71
2023/01/21 01:57:52;;;;;;;6.05;1.00;;;;;;;10.05;100.00;101417.63;2096684;28;20094;-71
2023/01/21 01:59:14;;;;;;;8.50;1.33;;;;;;;10.05;100.00;101415.88;2100528;28;20059;-71
2023/01/21 02:00:36;;;;;;;8.07;1.15;;;;;;;10.07;100.00;101411.53;2104215;28;20047;-71
2023/01/21 02:02:06;;;;;;;7.80;1.58;;;;;;;10.11;100.00;101415.19;2102142;28;20044;-71
2023/01/21 02:03:45;;;;;;;8.07;1.27;;;;;;;10.14;100.00;101412.59;2102923;28;20036;-72
2023/01/21 02:05:10;;;;;;;6.80;1.00;;;;;;;10.17;100.00;101415.38;2104060;28;20040;-71
2023/01/21 02:06:32;;;;;;;9.15;1.13;;;;;;;10.18;100.00;101418.03;2094005;28;20044;-72
2023/01/21 02:07:54;;;;;;;8.98;2.30;;;;;;;10.19;100.00;101411.91;2099407;28;20063;-71
2023/01/21 02:09:16;;;;;;;;;;;;;;;10.16;100.00;101417.09;2102377;28;20075;-72
2023/01/21 02:10:38;;;;;;;10.40;1.63;;;;;;;10.17;100.00;101416.28;2101873;28;19927;-71
2023/01/21 02:12:03;;;;;;;15.57;1.30;;;;;;;10.19;100.00;101411.91;2101309;28;20054;-72
2023/01/21 02:13:28;;;;;;;8.73;1.35;;;;;;;10.19;100.00;101414.56;2094198;28;20044;-71
2023/01/21 02:14:50;;;;;;;6.72;1.25;;;;;;;10.19;100.00;101411.00;2100199;28;20048;-72
2023/01/21 02:16:34;;;;;;;7.80;1.20;;;;;;;10.16;100.00;101400.38;2102028;28;20051;-73
2023/01/21 02:18:08;;;;;;;9.50;1.52;;;;;;;10.14;100.00;101402.94;2098532;28;20393;-72
2023/01/21 02:20:04;;;;;;;6.55;1.25;;;;;;;10.12;100.00;101402.00;2103481;28;20044;-72
2023/01/21 02:21:51;;;;;;;4.45;1.05;;;;;;;10.08;100.00;101402.78;2084623;28;20068;-71
2023/01/21 02:23:19;;;;;;;4.40;1.40;;;;;;;10.09;100.00;101401.03;2120941;28;20058;-71
2023/01/21 02:25:19;;;;;;;8.90;1.15;;;;;;;10.07;100.00;101401.00;2110841;28;20043;-71
2023/01/21 02:27:16;;;;;;;8.07;1.00;;;;;;;10.05;100.00;101396.50;2101986;28;20101;-71
2023/01/21 02:29:01;;;;;;;9.45;1.48;;;;;;;10.02;100.00;101401.72;2094039;28;20396;-71
2023/01/21 02:30:39;;;;;;;9.20;1.40;;;;;;;10.02;100.00;101396.44;2102293;28;20045;-72
2023/01/21 02:32:37;;;;;;;5.53;1.25;;;;;;;10.02;100.00;101396.44;2095527;28;20048;-72
2023/01/21 02:34:12;;;;;;;6.32;1.00;;;;;;;10.00;100.00;101399.94;2096364;28;20535;-71
2023/01/21 02:35:42;;;;;;;5.88;1.23;;;;;;;10.01;100.00;101400.81;2087244;28;20053;-71
2023/01/21 02:37:10;;;;;;;11.05;1.70;;;;;;;10.01;100.00;101395.56;2097401;28;20120;-71
2023/01/21 02:38:40;;;;;;;7.65;1.17;;;;;;;10.01;100.00;101398.19;2103861;28;20040;-71
2023/01/21 02:40:13;;;;;;;8.57;1.50;;;;;;;9.99;100.00;101389.31;2103155;28;20101;-71
2023/01/21 02:41:48;;;;;;;7.88;1.40;;;;;;;9.98;100.00;101396.34;2096349;28;20045;-71
2023/01/21 02:43:17;;;;;;;4.55;1.08;;;;;;;9.95;100.00;101391.00;2101531;28;20411;-72
2023/01/21 02:44:40;;;;;;;10.20;1.67;;;;;;;9.94;100.00;101397.13;2101721;28;20678;-71
2023/01/21 02:46:09;;;;;;;7.03;1.20;;;;;;;9.91;100.00;101398.78;2103140;28;20108;-71
2023/01/21 02:47:38;;;;;;;5.85;1.00;;;;;;;9.87;100.00;101396.91;2109565;28;20399;-72
2023/01/21 02:49:11;;;;;;;9.05;1.17;;;;;;;9.81;100.00;101400.25;2107128;28;20098;-71
2023/01/21 02:50:35;;;;;;;6.25;1.15;;;;;;;9.78;100.00;101404.56;2103502;28;20043;-71
2023/01/21 02:51:58;;;;;;;6.85;1.40;;;;;;;9.75;100.00;101396.56;2105743;28;20052;-72
2023/01/21 02:53:25;;;;;;;9.98;1.38;;;;;;;9.74;100.00;101405.31;2096213;28;20057;-71
2023/01/21 02:54:50;;;;;;;7.22;1.45;;;;;;;9.72;100.00;101401.72;2109274;28;20043;-71
2023/01/21 02:56:14;;;;;;;8.50;1.55;;;;;;;9.72;100.00;101404.34;2110202;28;20098;-72
2023/01/21 02:57:41;;;;;;;7.13;2.30;;;;;;;9.72;100.00;101402.63;2117490;28;20506;-71
2023/01/21 02:59:06;;;;;;;7.85;1.30;;;;;;;9.73;100.00;101406.16;2109840;28;20052;-72
2023/01/21 03:00:39;;;;;;;5.55;1.60;;;;;;;9.73;100.00;101400.88;2099988;28;20044;-71
2023/01/21 03:02:11;;;;;;;6.38;1.33;;;;;;;9.72;100.00;101401.72;2111681;28;20062;-72
2023/01/21 03:03:42;;;;;;;;;;;;;;;9.66;100.00;101404.19;2110106;28;20495;-71
2023/01/21 03:05:13;;;;;;;9.30;1.27;;;;;;;9.68;100.00;101389.31;2109434;28;19923;-72
2023/01/21 03:06:52;;;;;;;5.03;1.52;;;;;;;9.72;100.00;101396.44;2111362;28;20043;-72
2023/01/21 03:08:19;;;;;;;6.30;1.55;;;;;;;9.73;100.00;101393.88;2095896;28;20079;-72
2023/01/21 03:09:42;;;;;;;3.85;0.90;;;;;;;9.74;100.00;101400.94;2094207;28;20051;-72
2023/01/21 03:11:12;;;;;;;7.45;1.30;;;;;;;9.76;100.00;101395.72;2100806;28;20040;-72
2023/01/21 03:12:42;;;;;;;8.70;1.38;;;;;;;9.77;100.00;101400.13;2109760;28;20091;-72
2023/01/21 03:17:53;;;;;;;9.40;1.52;;;;;;;9.79;100.00;101403.69;2071201;28;20050;-72
2023/01/21 03:19:17;;;;;;;7.82;1.48;;;;;;;9.80;100.00;101402.84;2096279;28;20156;-71
2023/01/21 03:20:45;;;;;;;5.60;1.10;;;;;;;9.81;100.00;101408.16;2101114;28;20070;-71
2023/01/21 03:22:13;;;;;;;10.13;1.35;;;;;;;9.81;100.00;101405.53;2116621;28;20047;-71
2023/01/21 03:23:38;;;;;;;5.57;1.58;;;;;;;9.81;100.00;101405.53;2110835;28;20450;-71
2023/01/21 03:25:03;;;;;;;9.57;1.83;;;;;;;9.81;100.00;101402.91;2111522;28;20051;-71
2023/01/21 03:26:31;;;;;;;6.85;1.27;;;;;;;9.81;100.00;101405.53;2111259;28;20035;-71
2023/01/21 03:27:55;;;;;;;8.32;1.20;;;;;;;9.80;100.00;101411.66;2107871;28;20059;-71
2023/01/21 03:29:22;;;;;;;4.28;1.20;;;;;;;9.81;100.00;101404.63;2110403;28;20392;-72
2023/01/21 03:30:48;;;;;;;13.52;1.52;;;;;;;9.80;100.00;101403.75;2111468;28;20686;-71
2023/01/21 03:32:13;;;;;;;6.95;1.40;;;;;;;9.80;100.00;101401.09;2110716;28;20036;-71
2023/01/21 03:33:39;;;;;;;6.75;0.95;;;;;;;9.81;100.00;101402.91;2105850;28;20075;-71
2023/01/21 03:35:03;;;;;;;8.00;1.20;;;;;;;9.80;100.00;101408.13;2109986;28;20043;-71
2023/01/21 03:36:36;;;;;;;8.63;1.70;;;;;;;9.80;100.00;101405.47;2094201;28;20048;-71
2023/01/21 03:38:04;;;;;;;9.23;1.45;;;;;;;9.80;100.00;101410.75;2110940;28;20044;-71
2023/01/21 03:39:31;;;;;;;7.97;1.35;;;;;;;9.80;100.00;101411.66;2112340;28;20043;-71
2023/01/21 03:41:02;;;;;;;8.63;1.45;;;;;;;9.80;100.00;101411.66;2107329;28;20134;-71
2023/01/21 03:42:23;;;;;;;8.88;1.75;;;;;;;9.79;100.00;101412.50;2106078;28;20048;-71
2023/01/21 03:43:46;;;;;;;6.85;1.48;;;;;;;9.81;100.00;101404.63;2103137;28;20051;-71
2023/01/21 03:45:09;;;;;;;9.23;1.27;;;;;;;9.82;100.00;101409.97;2106535;28;20075;-71
2023/01/21 03:46:39;;;;;;;8.10;1.40;;;;;;;9.83;100.00;101413.50;2097774;28;20047;-71
2023/01/21 03:48:08;;;;;;;8.27;1.42;;;;;;;9.83;100.00;101414.38;2103982;28;20143;-71
2023/01/21 03:49:35;;;;;;;10.25;1.73;;;;;;;9.84;100.00;101408.28;2087399;28;20029;-72
2023/01/21 03:51:05;;;;;;;5.32;1.23;;;;;;;9.85;100.00;101409.13;2094346;28;20064;-71
2023/01/21 03:52:30;;;;;;;7.15;1.13;;;;;;;9.85;100.00;101406.50;2104162;28;20036;-71
2023/01/21 03:53:55;;;;;;;6.20;1.20;;;;;;;9.84;100.00;101400.38;2094952;28;20580;-71
2023/01/21 03:55:17;;;;;;;9.75;1.17;;;;;;;9.85;100.00;101401.22;2101103;28;20446;-71
2023/01/21 03:56:39;;;;;;;6.85;1.48;;;;;;;9.86;100.00;101396.00;2103201;28;20040;-71
2023/01/21 03:58:02;;;;;;;4.15;0.93;;;;;;;9.87;100.00;101399.53;2101594;28;20483;-72
2023/01/21 03:59:23;;;;;;;3.70;0.90;;;;;;;9.86;100.00;101398.63;2111529;28;20074;-72
2023/01/21 04:00:48;;;;;;;12.68;1.65;;;;;;;9.85;100.00;101395.94;2105588;28;20499;-72
2023/01/21 04:02:10;;;;;;;6.25;1.30;;;;;;;9.85;100.00;101401.22;2103149;28;20056;-72
2023/01/21 04:03:32;;;;;;;7.05;1.80;;;;;;;9.87;100.00;101407.44;2097439;28;20044;-71
2023/01/21 04:04:55;;;;;;;7.68;1.20;;;;;;;9.87;100.00;101404.81;2100513;28;20044;-71
2023/01/21 04:06:18;;;;;;;10.15;1.10;;;;;;;9.88;100.00;101402.22;2094704;28;20061;-72
2023/01/21 04:07:42;;;;;;;7.78;1.08;;;;;;;9.89;100.00;101413.66;2100561;28;20044;-71
2023/01/21 04:09:04;;;;;;;5.22;1.30;;;;;;;9.90;100.00;101411.09;2094398;28;20404;-72
2023/01/21 04:10:26;;;;;;;;;;;;;;;9.85;100.00;101401.22;2095266;28;20584;-71
2023/01/21 04:11:47;;;;;;;6.82;1.27;;;;;;;9.86;100.00;101405.66;2092175;28;19920;-71
2023/01/21 04:13:10;;;;;;;9.02;1.48;;;;;;;9.86;100.00;101396.00;2094592;28;20484;-72
2023/01/21 04:14:31;;;;;;;11.57;1.63;;;;;;;9.90;100.00;101397.00;2100199;28;20496;-73
2023/01/21 04:15:53;;;;;;;8.18;2.42;;;;;;;9.90;100.00;101391.72;2097305;28;20072;-71
2023/01/21 04:17:14;;;;;;;11.55;5.88;;;;;;;9.92;100.00;101395.28;2102374;28;20055;-72
2023/01/21 04:18:37;;;;;;;13.32;5.95;;;;;;;9.92;100.00;101383.00;2101663;28;20056;-71
2023/01/21 04:19:58;;;;;;;8.60;3.00;;;;;;;9.94;100.00;101390.94;2097339;28;20102;-71
2023/01/21 04:21:20;;;;;;;8.15;2.30;;;;;;;9.95;100.00;101387.47;2104176;28;20502;-72
2023/01/21 04:22:45;;;;;;;5.60;1.90;;;;;;;9.97;100.00;101389.31;2099344;28;20625;-71
2023/01/21 04:24:06;;;;;;;10.88;2.25;;;;;;;9.98;100.00;101380.53;2097443;28;20106;-72
2023/01/21 04:25:29;;;;;;;6.15;1.60;;;;;;;9.98;100.00;101390.19;2091830;28;20044;-72
2023/01/21 04:26:51;;;;;;;7.57;2.15;;;;;;;9.98;100.00;101387.53;2103578;28;20094;-71
2023/01/21 04:28:14;;;;;;;5.72;1.73;;;;;;;9.98;100.00;101387.53;2104460;28;20090;-72
2023/01/21 04:29:35;;;;;;;6.40;1.90;;;;;;;9.97;100.00;101391.94;2111133;28;20051;-72
2023/01/21 04:30:57;;;;;;;9.93;2.25;;;;;;;10.00;100.00;101391.13;2111239;28;20126;-72
2023/01/21 04:32:20;;;;;;;10.70;4.07;;;;;;;10.03;100.00;101388.59;2112314;28;20519;-72
2023/01/21 04:33:42;;;;;;;8.13;3.03;;;;;;;10.05;100.00;101394.78;2101501;28;20506;-71
2023/01/21 04:35:05;;;;;;;8.52;4.30;;;;;;;10.09;100.00;101398.41;2103677;28;20050;-71
2023/01/21 04:36:28;;;;;;;25.45;21.13;;;;;;;10.13;100.00;101395.00;2107897;28;20035;-72
2023/01/21 04:37:52;;;;;;;35.42;21.40;;;;;;;10.16;100.00;101398.63;2110837;28;20060;-72
2023/01/21 04:39:13;;;;;;;31.42;23.50;;;;;;;10.19;100.00;101400.47;2111343;28;20066;-72
2023/01/21 04:40:35;;;;;;;28.10;21.58;;;;;;;10.22;100.00;101405.84;2102551;28;20059;-71
2023/01/21 04:41:58;;;;;;;24.48;17.30;;;;;;;10.24;100.00;101409.44;2099322;28;20048;-71
2023/01/21 04:43:20;;;;;;;23.10;16.15;;;;;;;10.27;100.00;101413.03;2102984;28;20060;-72
2023/01/21 04:44:43;;;;;;;21.08;13.27;;;;;;;10.27;100.00;101399.81;2101755;28;20171;-72
2023/01/21 04:46:06;;;;;;;18.55;11.00;;;;;;;10.28;100.00;101411.28;2102231;28;20493;-71
2023/01/21 04:47:27;;;;;;;18.65;10.68;;;;;;;10.28;100.00;101398.97;2102837;28;20040;-72
2023/01/21 04:48:49;;;;;;;18.67;9.85;;;;;;;10.28;100.00;101398.09;2105547;28;20040;-71
2023/01/21 04:50:13;;;;;;;13.60;6.93;;;;;;;10.30;100.00;101397.28;2101953;28;20048;-72
2023/01/21 04:51:35;;;;;;;15.13;6.38;;;;;;;10.31;100.00;101406.06;2094550;28;20066;-72
2023/01/21 04:52:59;;;;;;;14.68;7.95;;;;;;;10.30;100.00;101406.94;2105080;28;20046;-71
2023/01/21 04:54:20;;;;;;;13.48;8.52;;;;;;;10.28;100.00;101404.25;2104911;28;20508;-72
2023/01/21 04:55:42;;;;;;;20.60;10.07;;;;;;;10.24;100.00;101405.00;2102387;28;20048;-71
2023/01/21 04:57:03;;;;;;;23.52;10.65;;;;;;;10.21;100.00;101404.94;2111016;28;20121;-72
2023/01/21 04:58:26;;;;;;;15.73;7.28;;;;;;;10.16;100.00;101406.53;2107651;28;20453;-71
2023/01/21 04:59:49;;;;;;;17.02;7.40;;;;;;;10.13;100.00;101403.81;2111273;28;20056;-72
2023/01/21 05:01:11;;;;;;;10.07;6.93;;;;;;;10.10;100.00;101408.13;2106630;28;20044;-71
2023/01/21 05:02:32;;;;;;;15.13;6.47;;;;;;;10.06;100.00;101414.13;2111268;28;20052;-72
2023/01/21 05:03:55;;;;;;;12.13;6.97;;;;;;;10.04;100.00;101411.47;2102772;28;20040;-71
2023/01/21 05:05:18;;;;;;;14.18;7.03;;;;;;;10.03;100.00;101412.31;2109537;28;20043;-71
2023/01/21 05:06:39;;;;;;;9.50;5.35;;;;;;;10.05;100.00;101412.34;2109957;28;20072;-71
2023/01/21 05:08:03;;;;;;;13.30;4.40;;;;;;;10.07;100.00;101414.19;2095803;28;20052;-71
2023/01/21 05:09:26;;;;;;;8.93;3.10;;;;;;;10.09;100.00;101416.88;2094867;28;20041;-71
2023/01/21 05:10:48;;;;;;;9.77;3.83;;;;;;;10.11;100.00;101410.75;2104505;28;20051;-71
2023/01/21 05:12:11;;;;;;;10.55;4.03;;;;;;;10.14;100.00;101421.41;2093383;28;20048;-71
2023/01/21 05:13:33;;;;;;;8.27;3.58;;;;;;;10.14;100.00;101424.06;2091576;28;20044;-71
2023/01/21 05:14:57;;;;;;;11.20;4.65;;;;;;;10.15;100.00;101430.22;2101762;28;20048;-72
2023/01/21 05:16:20;;;;;;;10.50;3.33;;;;;;;10.15;100.00;101419.69;2102568;28;20044;-71
2023/01/21 05:17:41;;;;;;;10.70;3.03;;;;;;;10.17;100.00;101426.84;2108695;28;20050;-71
2023/01/21 05:19:04;;;;;;;9.88;3.72;;;;;;;10.20;100.00;101429.53;2101193;28;20774;-72
2023/01/21 05:20:26;;;;;;;12.02;3.80;;;;;;;10.23;100.00;101429.63;2108516;28;20036;-71
2023/01/21 05:21:49;;;;;;;13.05;3.60;;;;;;;10.25;100.00;101427.91;2097223;28;20048;-71
2023/01/21 05:23:13;;;;;;;8.60;3.10;;;;;;;10.29;100.00;101431.53;2103764;28;20511;-71
2023/01/21 05:24:35;;;;;;;7.53;2.20;;;;;;;10.32;100.00;101435.16;2110803;28;20047;-72
2023/01/21 05:25:56;;;;;;;9.40;2.72;;;;;;;10.38;100.00;101429.13;2108377;28;20073;-71
2023/01/21 05:27:20;;;;;;;7.93;2.50;;;;;;;10.42;100.00;101430.13;2110827;28;20079;-71
2023/01/21 05:28:42;;;;;;;6.72;2.85;;;;;;;10.45;100.00;101431.09;2110827;28;20146;-71
2023/01/21 05:30:05;;;;;;;11.57;2.97;;;;;;;10.50;100.00;101439.16;2099394;28;20056;-72
2023/01/21 05:31:27;;;;;;;11.52;3.05;;;;;;;10.54;100.00;101441.00;2096663;28;20127;-71
2023/01/21 05:32:51;;;;;;;9.20;3.42;;;;;;;10.56;100.00;101434.94;2093854;28;20699;-72
2023/01/21 05:34:14;;;;;;;13.23;3.40;;;;;;;10.56;100.00;101432.28;2098816;28;20051;-71
2023/01/21 05:35:36;;;;;;;9.38;2.85;;;;;;;10.57;100.00;101435.78;2102496;28;20513;-71
2023/01/21 05:36:57;;;;;;;13.38;6.80;;;;;;;10.60;100.00;101433.25;2086012;28;20503;-72
2023/01/21 05:38:21;;;;;;;20.58;12.50;;;;;;;10.59;100.00;101435.00;2103093;28;20499;-72
2023/01/21 05:39:43;;;;;;;15.00;12.05;;;;;;;10.54;100.00;101433.09;2094242;28;20044;-71
2023/01/21 05:41:05;;;;;;;17.65;10.90;;;;;;;10.52;100.00;101434.78;2103835;28;20135;-72
2023/01/21 05:42:28;;;;;;;15.95;10.57;;;;;;;10.49;100.00;101437.38;2103488;28;20495;-71
2023/01/21 05:43:50;;;;;;;17.67;9.23;;;;;;;10.48;100.00;101438.22;2099698;28;20451;-71
2023/01/21 05:45:11;;;;;;;17.20;9.07;;;;;;;10.50;100.00;101433.88;2107676;28;20032;-71
2023/01/21 05:46:34;;;;;;;16.90;9.00;;;;;;;10.49;100.00;101440.00;2106000;28;20091;-71
2023/01/21 05:47:56;;;;;;;17.00;9.90;;;;;;;10.47;100.00;101439.06;2104161;28;20043;-72
2023/01/21 05:49:18;;;;;;;24.42;19.52;;;;;;;10.44;100.00;101436.31;2102024;28;20047;-72
2023/01/21 05:50:40;;;;;;;19.85;13.30;;;;;;;10.46;100.00;101437.25;2105135;28;20047;-71
2023/01/21 05:52:02;;;;;;;15.45;9.25;;;;;;;10.50;100.00;101428.59;2108798;28;20047;-71
2023/01/21 05:53:26;;;;;;;14.15;6.53;;;;;;;10.51;100.00;101433.88;2104828;28;20162;-71
2023/01/21 05:54:47;;;;;;;15.15;8.63;;;;;;;10.54;100.00;101430.44;2093859;28;20110;-71
2023/01/21 05:56:09;;;;;;;16.80;10.02;;;;;;;10.53;100.00;101437.47;2099480;28;20036;-71
2023/01/21 05:57:31;;;;;;;20.35;12.15;;;;;;;10.54;100.00;101441.91;2101248;28;20496;-72
2023/01/21 05:58:53;;;;;;;19.73;13.38;;;;;;;10.53;100.00;101434.84;2099472;28;20135;-71
2023/01/21 06:00:16;;;;;;;22.08;16.05;;;;;;;10.53;100.00;101439.22;2102215;28;20056;-71
2023/01/21 06:01:37;;;;;;;;;;;;;;;10.46;100.00;101443.44;2110640;28;20088;-71
2023/01/21 06:03:01;;;;;;;16.10;11.85;;;;;;;10.45;100.00;101440.75;2104872;28;19946;-72
2023/01/21 06:04:29;;;;;;;28.40;15.80;;;;;;;10.47;100.00;101439.06;2102161;28;20040;-71
2023/01/21 06:05:52;;;;;;;21.17;13.85;;;;;;;10.47;100.00;101434.66;2102911;28;20095;-71
2023/01/21 06:07:13;;;;;;;25.45;17.05;;;;;;;10.47;100.00;101428.50;2096413;28;20439;-72
2023/01/21 06:08:37;;;;;;;91.32;82.63;;;;;;;10.45;100.00;101423.16;2101860;28;20059;-71
2023/01/21 06:10:00;;;;;;;64.38;57.85;;;;;;;10.43;100.00;101429.28;2102198;28;20044;-71
2023/01/21 06:11:22;;;;;;;71.63;64.30;;;;;;;10.41;100.00;101436.25;2109907;28;20043;-71
2023/01/21 06:12:45;;;;;;;82.22;74.18;;;;;;;10.37;100.00;101437.94;2096449;28;20103;-71
2023/01/21 06:14:07;;;;;;;78.22;70.32;;;;;;;10.36;100.00;101436.13;2097133;28;20079;-71
2023/01/21 06:15:32;;;;;;;39.38;35.13;;;;;;;10.38;100.00;101445.88;2094840;28;20519;-71
2023/01/21 06:16:54;;;;;;;27.67;22.42;;;;;;;10.39;100.00;101431.81;2099072;28;20056;-71
2023/01/21 06:18:17;;;;;;;28.40;22.08;;;;;;;10.42;100.00;101438.94;2110968;28;20059;-72
2023/01/21 06:19:39;;;;;;;23.55;17.85;;;;;;;10.46;100.00;101437.25;2113230;28;20056;-71
2023/01/21 06:21:02;;;;;;;29.55;21.00;;;;;;;10.47;100.00;101434.66;2102957;28;20487;-71
2023/01/21 06:22:24;;;;;;;24.90;17.42;;;;;;;10.54;100.00;101435.72;2100194;28;20710;-71
2023/01/21 06:23:48;;;;;;;30.88;25.58;;;;;;;10.58;100.00;101437.59;2105086;28;20059;-71
2023/01/21 06:25:10;;;;;;;37.47;26.77;;;;;;;10.58;100.00;101438.47;2097758;28;20060;-72
2023/01/21 06:26:33;;;;;;;33.33;26.70;;;;;;;10.62;100.00;101444.75;2102127;28;20044;-71
2023/01/21 06:27:56;;;;;;;36.22;25.83;;;;;;;10.65;100.00;101442.19;2098874;28;20043;-71
2023/01/21 06:29:17;;;;;;;31.63;24.45;;;;;;;10.68;100.00;101444.91;2104972;28;20059;-72
2023/01/21 06:30:40;;;;;;;36.38;27.50;;;;;;;10.72;100.00;101442.38;2103179;28;20044;-71
2023/01/21 06:32:03;;;;;;;33.40;26.75;;;;;;;10.79;100.00;101443.44;2102255;28;20097;-71